Time;durP1;ratioP1;P1;durP2;ratioP2;P2;SDS_P1;SDS_P2;PMS_P1;PMS_P2;Temp;Humidity;BMP_temperature;BMP_pressure;BME280_temperature;BME280_humidity;BME280_pressure;Samples;Min_cycle;Max_cycle;Signal;HPM_P1;HPM_P2
2022/05/06 00:00:16;;;;;;;163.77;18.38;;;10.10;99.90;;;;;;5013284;28;20046;-59
2022/05/06 00:02:42;;;;;;;45.20;18.42;;;8.80;99.90;;;;;;5013256;28;20053;-59
2022/05/06 00:05:10;;;;;;;33.33;19.52;;;9.10;99.90;;;;;;5013288;28;20056;-60
2022/05/06 00:07:37;;;;;;;78.70;22.27;;;9.50;99.90;;;;;;5013117;28;20049;-59
2022/05/06 00:10:04;;;;;;;;;;;9.10;99.90;;;;;;5013864;28;20060;-59
2022/05/06 00:12:30;;;;;;;34.05;18.58;;;8.80;99.90;;;;;;5013330;28;19922;-62
2022/05/06 00:14:56;;;;;;;122.57;19.25;;;8.90;99.90;;;;;;5013238;28;20093;-58
2022/05/06 00:17:22;;;;;;;;;;;8.90;99.90;;;;;;5013658;28;20100;-59
2022/05/06 00:19:48;;;;;;;41.33;17.98;;;9.90;99.90;;;;;;5013067;28;20354;-59
2022/05/06 00:22:13;;;;;;;30.08;17.85;;;8.70;99.90;;;;;;5013322;28;20049;-59
2022/05/06 00:24:40;;;;;;;30.90;16.10;;;9.60;99.90;;;;;;5028107;28;20515;-60
2022/05/06 00:27:06;;;;;;;30.63;17.30;;;9.50;99.90;;;;;;5012553;28;20462;-59
2022/05/06 00:29:33;;;;;;;;;;;8.80;99.90;;;;;;5013552;28;20355;-61
2022/05/06 00:31:59;;;;;;;27.33;17.43;;;8.80;99.90;;;;;;5012907;28;19926;-60
2022/05/06 00:34:25;;;;;;;33.47;20.02;;;8.80;99.90;;;;;;5012726;28;20060;-59
2022/05/06 00:36:51;;;;;;;38.70;22.38;;;9.80;99.90;;;;;;4979594;28;20053;-59
2022/05/06 00:39:16;;;;;;;42.38;23.83;;;8.50;99.90;;;;;;5013078;28;20404;-59
2022/05/06 00:41:42;;;;;;;53.70;28.38;;;10.00;99.90;;;;;;4995668;28;20050;-59
2022/05/06 00:44:09;;;;;;;45.95;25.83;;;8.80;99.90;;;;;;5012955;28;20108;-59
2022/05/06 00:46:36;;;;;;;29.70;17.90;;;10.00;99.90;;;;;;5012841;28;20053;-59
2022/05/06 00:49:03;;;;;;;29.70;18.42;;;8.80;99.90;;;;;;5012583;28;20191;-59
2022/05/06 00:51:29;;;;;;;35.28;20.23;;;9.60;99.90;;;;;;5012750;28;20058;-60
2022/05/06 00:53:56;;;;;;;38.78;21.35;;;8.70;99.90;;;;;;4995200;28;20085;-59
2022/05/06 00:56:25;;;;;;;41.05;23.00;;;8.90;99.90;;;;;;5012682;28;20050;-59
2022/05/06 00:58:52;;;;;;;39.20;23.20;;;10.40;99.90;;;;;;5012601;28;20041;-59
2022/05/06 01:01:19;;;;;;;34.05;19.42;;;9.10;99.90;;;;;;5012510;28;20077;-59
2022/05/06 01:03:45;;;;;;;31.23;19.70;;;10.00;99.90;;;;;;5012469;28;20053;-60
2022/05/06 01:06:13;;;;;;;28.20;19.05;;;9.10;99.90;;;;;;5012758;28;20050;-59
2022/05/06 01:08:40;;;;;;;37.10;20.02;;;10.10;99.90;;;;;;5012863;28;20119;-59
2022/05/06 01:11:07;;;;;;;35.47;21.38;;;8.60;99.90;;;;;;5027775;28;20509;-59
2022/05/06 01:13:44;;;;;;;34.72;19.10;;;8.80;99.90;;;;;;5012415;28;20049;-59
2022/05/06 01:16:11;;;;;;;44.20;23.50;;;9.80;99.90;;;;;;5012319;28;20045;-59
2022/05/06 01:18:37;;;;;;;38.15;22.75;;;8.80;99.90;;;;;;5012584;28;20093;-59
2022/05/06 01:21:05;;;;;;;28.27;15.18;;;8.90;99.90;;;;;;5012418;28;20081;-59
2022/05/06 01:23:32;;;;;;;26.08;16.95;;;8.40;99.90;;;;;;5027919;28;20065;-59
2022/05/06 01:25:58;;;;;;;29.83;17.77;;;8.70;99.90;;;;;;5012384;28;20406;-59
2022/05/06 01:28:25;;;;;;;34.67;21.02;;;8.60;99.90;;;;;;5012336;28;20054;-62
2022/05/06 01:30:59;;;;;;;36.78;21.52;;;8.40;99.90;;;;;;5012142;28;20497;-59
2022/05/06 01:33:26;;;;;;;30.23;19.95;;;9.40;99.90;;;;;;5012230;28;20034;-59
2022/05/06 01:35:54;;;;;;;35.17;21.25;;;8.30;99.90;;;;;;5012459;28;20097;-59
2022/05/06 01:38:26;;;;;;;30.25;20.23;;;8.70;99.90;;;;;;5015806;28;20046;-59
2022/05/06 01:40:59;;;;;;;30.13;19.02;;;9.10;99.90;;;;;;5016148;28;20054;-59
2022/05/06 01:43:27;;;;;;;27.02;17.05;;;8.20;99.90;;;;;;5015952;28;20124;-60
2022/05/06 01:45:56;;;;;;;26.80;18.05;;;9.30;99.90;;;;;;5031571;28;20049;-59
2022/05/06 01:48:22;;;;;;;18.80;13.73;;;8.30;99.90;;;;;;5016028;28;20100;-59
2022/05/06 01:50:49;;;;;;;23.60;15.73;;;8.50;99.90;;;;;;4998428;28;20050;-59
2022/05/06 01:53:16;;;;;;;22.52;16.30;;;8.10;99.90;;;;;;5015880;28;20046;-59
2022/05/06 01:55:45;;;;;;;28.00;17.48;;;8.10;99.90;;;;;;5015730;28;20081;-59
2022/05/06 01:58:11;;;;;;;26.20;16.55;;;9.30;99.90;;;;;;5015916;28;20398;-60
2022/05/06 02:00:37;;;;;;;34.75;18.50;;;8.70;99.90;;;;;;5015855;28;20171;-59
2022/05/06 02:03:05;;;;;;;40.13;22.17;;;8.80;99.90;;;;;;5015644;28;20046;-59
2022/05/06 02:05:31;;;;;;;33.92;19.42;;;8.00;99.90;;;;;;5030917;28;20045;-59
2022/05/06 02:07:57;;;;;;;50.42;28.00;;;9.60;99.90;;;;;;5015570;28;20044;-59
2022/05/06 02:10:25;;;;;;;75.10;29.73;;;8.60;99.90;;;;;;5030996;28;20115;-59
2022/05/06 02:12:51;;;;;;;49.95;28.48;;;8.30;99.90;;;;;;4981939;28;20402;-60
2022/05/06 02:15:19;;;;;;;59.83;31.65;;;7.60;99.90;;;;;;5015593;28;20053;-59
2022/05/06 02:17:45;;;;;;;64.88;33.63;;;8.00;99.90;;;;;;5015475;28;20054;-60
2022/05/06 02:20:12;;;;;;;63.65;33.60;;;8.20;99.90;;;;;;5015327;28;20045;-60
2022/05/06 02:22:42;;;;;;;75.88;36.92;;;7.80;99.90;;;;;;5030774;28;20100;-60
2022/05/06 02:25:09;;;;;;;89.97;40.08;;;7.90;99.90;;;;;;5015525;28;20510;-60
2022/05/06 02:27:39;;;;;;;388.40;43.15;;;7.60;99.90;;;;;;5015376;28;20085;-60
2022/05/06 02:35:35;;;;;;;105.70;40.17;;;8.50;99.90;;;;;;5014848;28;20596;-61
2022/05/06 02:38:00;;;;;;;216.95;44.35;;;7.50;99.90;;;;;;5030413;28;20081;-59
2022/05/06 02:40:27;;;;;;;231.38;44.15;;;8.10;99.90;;;;;;5015068;28;20483;-60
2022/05/06 02:42:53;;;;;;;82.47;39.97;;;8.30;99.90;;;;;;4997612;28;20049;-59
2022/05/06 02:45:18;;;;;;;82.53;41.63;;;8.70;99.90;;;;;;5014820;28;20050;-60
2022/05/06 02:47:45;;;;;;;94.40;43.00;;;8.10;99.90;;;;;;5014455;28;20100;-60
2022/05/06 02:50:10;;;;;;;;;;;8.20;99.90;;;;;;5014527;28;20050;-59
2022/05/06 02:52:36;;;;;;;128.63;46.67;;;8.00;99.90;;;;;;5014876;28;19921;-60
2022/05/06 02:55:02;;;;;;;214.48;50.35;;;8.20;99.90;;;;;;4997421;28;20052;-59
2022/05/06 02:57:28;;;;;;;186.07;53.30;;;8.20;99.90;;;;;;5014940;28;20056;-59
2022/05/06 02:59:54;;;;;;;153.27;51.47;;;8.20;99.90;;;;;;5014718;28;20554;-59
2022/05/06 03:02:20;;;;;;;181.32;55.30;;;8.70;99.90;;;;;;5014614;28;20497;-60
2022/05/06 03:04:45;;;;;;;262.73;57.17;;;9.60;99.90;;;;;;5014372;28;20096;-60
2022/05/06 03:07:11;;;;;;;203.60;54.67;;;8.70;99.90;;;;;;5014657;28;20068;-60
2022/05/06 03:09:39;;;;;;;237.30;56.15;;;9.10;99.90;;;;;;5014582;28;20481;-60
2022/05/06 03:12:05;;;;;;;342.83;62.80;;;8.90;99.90;;;;;;5014546;28;20120;-60
2022/05/06 03:14:31;;;;;;;350.15;59.13;;;9.00;99.90;;;;;;5014357;28;20054;-60
2022/05/06 03:16:57;;;;;;;544.45;61.47;;;9.60;99.90;;;;;;5014261;28;20061;-60
2022/05/06 03:19:22;;;;;;;522.03;51.88;;;9.40;99.90;;;;;;5014189;28;20042;-60
2022/05/06 03:21:54;;;;;;;471.25;50.42;;;9.50;99.90;;;;;;5014706;28;20095;-60
2022/05/06 03:24:19;;;;;;;411.70;48.13;;;9.40;99.90;;;;;;5014166;28;20050;-59
2022/05/06 03:26:45;;;;;;;442.58;48.10;;;9.60;99.90;;;;;;4996760;28;20045;-62
2022/05/06 03:29:12;;;;;;;409.58;48.22;;;9.30;99.90;;;;;;4996591;28;20147;-60
2022/05/06 03:31:38;;;;;;;472.30;50.83;;;9.70;99.90;;;;;;5013947;28;20069;-60
2022/05/06 03:34:05;;;;;;;392.92;47.38;;;9.50;99.90;;;;;;4993088;28;20458;-60
2022/05/06 03:36:31;;;;;;;576.30;52.58;;;9.30;99.90;;;;;;4994499;28;20057;-61
2022/05/06 03:38:56;;;;;;;570.00;53.42;;;9.60;99.90;;;;;;4994439;28;20046;-60
2022/05/06 03:41:22;;;;;;;452.63;47.67;;;9.40;99.90;;;;;;4994243;28;20085;-60
2022/05/06 03:43:48;;;;;;;258.25;43.05;;;9.40;99.90;;;;;;4994216;28;20384;-60
2022/05/06 03:46:13;;;;;;;293.55;41.97;;;9.50;99.90;;;;;;4994095;28;20479;-60
2022/05/06 03:48:39;;;;;;;433.23;50.28;;;9.60;99.90;;;;;;4994148;28;20046;-59
2022/05/06 03:51:23;;;;;;;416.13;47.65;;;9.50;99.90;;;;;;4994306;28;20749;-63
2022/05/06 03:53:54;;;;;;;430.80;44.88;;;11.20;99.90;;;;;;4992814;28;20100;-60
2022/05/06 03:56:24;;;;;;;379.48;43.40;;;9.90;99.90;;;;;;4994058;28;20046;-60
2022/05/06 03:58:50;;;;;;;325.35;43.28;;;9.50;99.90;;;;;;4993862;28;20133;-60
2022/05/06 04:01:19;;;;;;;325.27;41.80;;;10.00;99.90;;;;;;4993808;28;20583;-60
2022/05/06 04:03:45;;;;;;;351.40;45.45;;;10.00;99.90;;;;;;4993959;28;20046;-60
2022/05/06 04:06:13;;;;;;;373.83;43.53;;;9.90;99.90;;;;;;4993751;28;20557;-60
2022/05/06 04:08:41;;;;;;;308.50;42.70;;;10.20;99.90;;;;;;4993811;28;20057;-60
2022/05/06 04:11:09;;;;;;;449.55;48.25;;;11.30;99.90;;;;;;4993630;28;20407;-60
2022/05/06 04:13:35;;;;;;;437.92;47.58;;;9.50;99.90;;;;;;4976154;28;20054;-60
2022/05/06 04:16:01;;;;;;;325.30;45.40;;;10.00;99.90;;;;;;4993845;28;20169;-59
2022/05/06 04:18:28;;;;;;;379.13;48.88;;;9.70;99.90;;;;;;4993677;28;20057;-59
2022/05/06 04:23:38;;;;;;;413.27;52.05;;;9.70;99.90;;;;;;4993497;28;20193;-60
2022/05/06 04:26:08;;;;;;;431.50;54.60;;;9.80;99.90;;;;;;4993433;28;20506;-60
2022/05/06 04:28:35;;;;;;;435.90;54.15;;;11.10;99.90;;;;;;4993538;28;20482;-60
2022/05/06 04:31:02;;;;;;;488.75;56.08;;;10.50;99.90;;;;;;4993483;28;20054;-61
2022/05/06 04:33:28;;;;;;;302.75;53.40;;;10.40;99.90;;;;;;4993682;28;20561;-61
2022/05/06 04:35:56;;;;;;;586.40;66.40;;;9.90;99.90;;;;;;5012882;28;20061;-60
2022/05/06 04:38:22;;;;;;;486.58;61.83;;;10.20;99.90;;;;;;5012762;28;20498;-60
2022/05/06 04:40:49;;;;;;;429.13;59.13;;;10.00;99.90;;;;;;4995478;28;20048;-60
2022/05/06 04:43:18;;;;;;;489.77;61.78;;;9.70;99.90;;;;;;5012904;28;20069;-59
2022/05/06 04:45:44;;;;;;;399.40;58.90;;;10.20;99.90;;;;;;5012896;28;20045;-60
2022/05/06 04:48:11;;;;;;;;;;;10.30;99.90;;;;;;5013318;28;20052;-59
2022/05/06 04:50:37;;;;;;;338.42;52.30;;;10.40;99.90;;;;;;5012703;28;19932;-60
2022/05/06 04:53:07;;;;;;;223.23;48.03;;;10.00;99.90;;;;;;5027789;28;20562;-59
2022/05/06 04:55:33;;;;;;;281.70;50.67;;;10.50;99.90;;;;;;5012776;28;20057;-60
2022/05/06 04:57:59;;;;;;;251.57;51.22;;;10.20;99.90;;;;;;5012522;28;20483;-60
2022/05/06 05:00:24;;;;;;;254.63;51.17;;;10.70;99.90;;;;;;5012626;28;20057;-60
2022/05/06 05:02:50;;;;;;;302.65;53.78;;;10.20;99.90;;;;;;5012613;28;20100;-59
2022/05/06 05:05:16;;;;;;;347.35;56.35;;;9.90;99.90;;;;;;5012625;28;20506;-59
2022/05/06 05:07:42;;;;;;;356.13;55.58;;;9.60;99.90;;;;;;5012496;28;20494;-61
2022/05/06 05:10:08;;;;;;;406.90;54.10;;;10.30;99.90;;;;;;5012710;28;20052;-60
2022/05/06 05:12:35;;;;;;;357.45;50.90;;;10.50;99.90;;;;;;5030325;28;20053;-59
2022/05/06 05:15:02;;;;;;;355.63;48.78;;;10.70;99.90;;;;;;5016711;28;20052;-59
2022/05/06 05:17:27;;;;;;;183.82;41.67;;;10.20;99.90;;;;;;5016594;28;20144;-60
2022/05/06 05:19:53;;;;;;;280.33;44.88;;;10.40;99.90;;;;;;5016476;28;20536;-60
2022/05/06 05:22:19;;;;;;;364.33;46.22;;;10.60;99.90;;;;;;5016314;28;20121;-60
2022/05/06 05:24:45;;;;;;;327.73;46.38;;;10.50;99.90;;;;;;5031903;28;20441;-60
2022/05/06 05:27:11;;;;;;;;;;;10.50;99.90;;;;;;5016921;28;20068;-59
2022/05/06 05:29:36;;;;;;;191.93;38.67;;;11.60;99.90;;;;;;4998915;28;19969;-61
2022/05/06 05:32:03;;;;;;;171.95;36.00;;;10.60;99.90;;;;;;4998745;28;20038;-60
2022/05/06 05:34:29;;;;;;;214.02;37.83;;;10.30;99.90;;;;;;5016200;28;20057;-60
2022/05/06 05:36:54;;;;;;;198.25;36.47;;;10.50;99.90;;;;;;4998699;28;20049;-60
2022/05/06 05:39:20;;;;;;;264.95;38.33;;;10.30;99.90;;;;;;5016215;28;20054;-60
2022/05/06 05:41:46;;;;;;;180.98;35.20;;;10.30;99.90;;;;;;5016214;28;20088;-59
2022/05/06 05:49:40;;;;;;;138.00;31.42;;;11.30;99.90;;;;;;5016209;28;20111;-60
2022/05/06 05:52:06;;;;;;;137.52;31.65;;;11.40;99.90;;;;;;5016006;28;20045;-60
2022/05/06 05:54:32;;;;;;;136.52;32.80;;;10.40;99.90;;;;;;5015852;28;20487;-60
2022/05/06 05:56:57;;;;;;;137.18;30.58;;;10.40;99.90;;;;;;5015809;28;20049;-60
2022/05/06 05:59:24;;;;;;;144.07;29.38;;;10.30;99.90;;;;;;5015746;28;20050;-60
2022/05/06 06:01:49;;;;;;;122.45;27.15;;;11.10;99.90;;;;;;4998038;28;20401;-60
2022/05/06 06:04:16;;;;;;;154.88;29.88;;;10.40;99.90;;;;;;5016156;28;20046;-60
2022/05/06 06:06:42;;;;;;;146.38;31.00;;;10.40;99.90;;;;;;5015774;28;20103;-60
2022/05/06 06:09:08;;;;;;;121.55;26.15;;;11.00;99.90;;;;;;4998095;28;20224;-60
2022/05/06 06:11:35;;;;;;;118.57;25.45;;;11.10;99.90;;;;;;4981986;28;20046;-60
2022/05/06 06:14:01;;;;;;;82.97;25.63;;;11.00;99.90;;;;;;5015399;28;20049;-60
2022/05/06 06:16:27;;;;;;;;;;;11.10;99.90;;;;;;5008894;28;20057;-60
2022/05/06 06:18:52;;;;;;;82.88;24.55;;;10.80;99.90;;;;;;5010796;28;19933;-62
2022/05/06 06:21:18;;;;;;;76.47;24.75;;;11.50;99.90;;;;;;5012734;28;20045;-60
2022/05/06 06:23:44;;;;;;;60.83;21.25;;;11.30;99.90;;;;;;5012021;28;20077;-60
2022/05/06 06:26:10;;;;;;;45.42;20.83;;;11.50;99.90;;;;;;5012912;28;20042;-60
2022/05/06 06:28:35;;;;;;;65.15;19.30;;;11.50;99.90;;;;;;5008782;28;20508;-60
2022/05/06 06:31:01;;;;;;;27.02;14.88;;;11.20;99.90;;;;;;5011990;28;20105;-60
2022/05/06 06:33:27;;;;;;;26.10;15.40;;;10.90;99.90;;;;;;5011610;28;20116;-61
2022/05/06 06:35:52;;;;;;;25.77;15.20;;;11.30;99.90;;;;;;4991438;28;20066;-61
2022/05/06 06:38:18;;;;;;;21.48;14.10;;;11.00;99.90;;;;;;4988962;28;20089;-60
2022/05/06 06:40:44;;;;;;;27.92;15.32;;;11.30;99.90;;;;;;4991467;28;20050;-59
2022/05/06 06:43:10;;;;;;;27.52;16.20;;;11.20;99.90;;;;;;4992743;28;20050;-60
2022/05/06 06:45:37;;;;;;;25.27;14.98;;;11.10;99.90;;;;;;4991978;28;20042;-60
2022/05/06 06:48:04;;;;;;;26.65;14.88;;;11.30;99.90;;;;;;4987118;28;20058;-60
2022/05/06 06:50:29;;;;;;;24.45;15.02;;;12.60;99.90;;;;;;4992911;28;20053;-60
2022/05/06 06:52:55;;;;;;;26.90;15.35;;;11.20;99.90;;;;;;4992838;28;20038;-60
2022/05/06 06:55:21;;;;;;;26.02;15.57;;;11.40;99.90;;;;;;4974660;28;20086;-63
2022/05/06 06:57:47;;;;;;;21.73;15.02;;;10.90;99.90;;;;;;4988892;28;20137;-61
2022/05/06 07:00:13;;;;;;;22.88;14.52;;;11.40;99.90;;;;;;4992685;28;20493;-60
2022/05/06 07:02:42;;;;;;;;;;;11.50;99.90;;;;;;4992774;28;20043;-61
2022/05/06 07:05:09;;;;;;;17.15;11.57;;;11.30;99.90;;;;;;4992232;28;19926;-64
2022/05/06 07:13:03;;;;;;;21.42;13.32;;;11.50;99.90;;;;;;4992016;28;20061;-62
2022/05/06 07:15:31;;;;;;;16.48;12.15;;;11.80;99.90;;;;;;4990303;28;20426;-60
2022/05/06 07:17:58;;;;;;;16.70;11.30;;;11.70;99.90;;;;;;4992644;28;20486;-60
2022/05/06 07:20:23;;;;;;;;;;;12.10;99.90;;;;;;4994485;28;20057;-63
2022/05/06 07:22:49;;;;;;;16.75;11.13;;;12.00;99.90;;;;;;4994124;28;20425;-60
2022/05/06 07:25:15;;;;;;;19.58;13.25;;;12.00;99.90;;;;;;4993970;28;20054;-62
2022/05/06 07:27:40;;;;;;;19.98;13.80;;;11.90;99.90;;;;;;4992909;28;20552;-60
2022/05/06 07:30:08;;;;;;;15.57;11.00;;;12.50;99.90;;;;;;4994030;28;20053;-60
2022/05/06 07:32:34;;;;;;;17.17;11.82;;;12.50;99.90;;;;;;4993824;28;20050;-61
2022/05/06 07:35:01;;;;;;;16.30;11.32;;;12.40;99.90;;;;;;5004674;28;20396;-61
2022/05/06 07:37:33;;;;;;;12.98;9.98;;;12.10;99.90;;;;;;4982601;28;20140;-60
2022/05/06 07:39:59;;;;;;;14.90;11.30;;;12.40;99.90;;;;;;5020302;28;20060;-63
2022/05/06 07:42:25;;;;;;;14.68;10.73;;;12.60;99.90;;;;;;5013289;28;20049;-61
2022/05/06 07:44:50;;;;;;;15.38;11.27;;;12.90;99.90;;;;;;5013205;28;20046;-65
2022/05/06 07:47:16;;;;;;;15.43;11.38;;;12.60;99.90;;;;;;4995860;28;20394;-60
2022/05/06 07:49:42;;;;;;;17.33;11.77;;;13.00;99.90;;;;;;5013651;28;20112;-60
2022/05/06 07:52:07;;;;;;;17.25;11.40;;;13.00;99.90;;;;;;5013260;28;20049;-60
2022/05/06 07:54:33;;;;;;;16.02;11.93;;;12.60;99.90;;;;;;5013291;28;20053;-60
2022/05/06 07:56:59;;;;;;;18.42;12.95;;;13.00;99.90;;;;;;5013443;28;20049;-61
2022/05/06 07:59:25;;;;;;;18.60;12.63;;;12.80;99.90;;;;;;5013312;28;20050;-61
2022/05/06 08:04:38;;;;;;;16.52;11.93;;;13.10;99.90;;;;;;5012865;28;20049;-61
2022/05/06 08:07:05;;;;;;;19.15;12.95;;;13.10;99.90;;;;;;4995870;28;20551;-61
2022/05/06 08:09:31;;;;;;;18.40;12.88;;;13.20;99.90;;;;;;5013231;28;20129;-61
2022/05/06 08:11:57;;;;;;;16.35;11.75;;;13.40;99.90;;;;;;5013109;28;20046;-61
2022/05/06 08:14:23;;;;;;;14.82;11.32;;;13.30;99.90;;;;;;5013100;28;20046;-61
2022/05/06 08:16:49;;;;;;;;;;;13.40;99.90;;;;;;4995885;28;20387;-62
2022/05/06 08:19:16;;;;;;;16.35;12.27;;;13.70;99.90;;;;;;5012985;28;19967;-61
2022/05/06 08:21:42;;;;;;;17.65;12.35;;;14.10;99.90;;;;;;4995208;28;20541;-61
2022/05/06 08:24:08;;;;;;;;;;;14.10;99.90;;;;;;5013327;28;20478;-60
2022/05/06 08:26:34;;;;;;;15.95;12.65;;;14.10;99.90;;;;;;5013031;28;19976;-60
2022/05/06 08:29:00;;;;;;;13.85;11.43;;;14.30;99.90;;;;;;5013054;28;20046;-60
2022/05/06 08:31:27;;;;;;;15.35;11.45;;;14.30;99.90;;;;;;5013046;28;20482;-60
2022/05/06 08:33:54;;;;;;;14.85;11.10;;;14.40;99.90;;;;;;4995089;28;20104;-60
2022/05/06 08:36:20;;;;;;;15.05;11.25;;;14.70;99.90;;;;;;5010508;28;20050;-66
2022/05/06 08:38:46;;;;;;;14.57;11.35;;;14.50;99.90;;;;;;5009224;28;20038;-60
2022/05/06 08:41:12;;;;;;;12.25;10.02;;;14.50;99.90;;;;;;5008514;28;20061;-60
2022/05/06 08:43:38;;;;;;;12.32;9.63;;;14.30;99.90;;;;;;5010004;28;20053;-60
2022/05/06 08:51:38;;;;;;;10.27;8.73;;;14.90;99.90;;;;;;5007031;28;20088;-60
2022/05/06 08:54:04;;;;;;;12.48;9.48;;;14.90;99.90;;;;;;5010290;28;20124;-60
2022/05/06 08:56:31;;;;;;;11.88;9.68;;;15.30;99.90;;;;;;5009137;28;20050;-67
2022/05/06 08:58:58;;;;;;;11.60;9.45;;;15.80;99.90;;;;;;4995231;28;20057;-61
2022/05/06 09:01:25;;;;;;;10.75;8.82;;;15.80;99.90;;;;;;5016897;28;20037;-61
2022/05/06 09:03:51;;;;;;;9.52;8.48;;;15.70;99.90;;;;;;5014462;28;20053;-60
2022/05/06 09:06:22;;;;;;;8.73;7.63;;;16.20;99.90;;;;;;5032158;28;20111;-60
2022/05/06 09:08:50;;;;;;;12.05;7.80;;;16.30;99.90;;;;;;5031992;28;20401;-60
2022/05/06 09:14:04;;;;;;;9.98;7.53;;;16.50;99.90;;;;;;5031755;28;20089;-61
2022/05/06 09:16:39;;;;;;;;;;;16.40;99.90;;;;;;5031717;28;20127;-62
2022/05/06 09:19:15;;;;;;;9.23;7.40;;;16.40;99.90;;;;;;5032010;28;19983;-63
2022/05/06 09:22:01;;;;;;;8.25;6.88;;;16.00;99.90;;;;;;5031538;28;20084;-61
2022/05/06 09:24:28;;;;;;;7.43;6.60;;;16.20;99.90;;;;;;5032329;28;20511;-62
2022/05/06 09:27:04;;;;;;;8.70;6.68;;;16.30;99.90;;;;;;5032252;28;20191;-61
2022/05/06 09:29:41;;;;;;;8.43;6.28;;;16.40;99.90;;;;;;5032191;28;20045;-61
2022/05/06 09:32:26;;;;;;;9.43;6.43;;;16.70;99.90;;;;;;5032030;28;20152;-61
2022/05/06 09:34:57;;;;;;;6.35;5.28;;;17.30;99.90;;;;;;5031894;28;20135;-62
2022/05/06 09:37:36;;;;;;;7.22;5.43;;;17.20;99.90;;;;;;5014713;28;20054;-62
2022/05/06 09:40:08;;;;;;;5.97;5.38;;;17.00;99.90;;;;;;5014612;28;20053;-61
2022/05/06 09:42:42;;;;;;;7.63;5.57;;;17.40;99.90;;;;;;5031944;28;20056;-62
2022/05/06 09:45:10;;;;;;;7.45;5.90;;;17.10;99.90;;;;;;5031835;28;20493;-62
2022/05/06 09:47:37;;;;;;;5.47;4.90;;;17.20;99.90;;;;;;5032044;28;20045;-62
2022/05/06 09:50:05;;;;;;;6.72;4.45;;;16.90;99.90;;;;;;5032071;28;20052;-61
2022/05/06 09:52:31;;;;;;;6.55;5.10;;;17.30;99.90;;;;;;5031851;28;20046;-62
2022/05/06 09:54:57;;;;;;;;;;;17.40;99.90;;;;;;5014807;28;20084;-61
2022/05/06 09:57:24;;;;;;;5.00;4.50;;;17.70;99.90;;;;;;5032043;28;20407;-60
2022/05/06 09:59:50;;;;;;;5.18;4.03;;;17.70;99.90;;;;;;5035455;28;20528;-61
2022/05/06 10:02:17;;;;;;;;;;;17.70;99.90;;;;;;5036018;28;20045;-63
2022/05/06 10:04:43;;;;;;;;;;;18.00;99.90;;;;;;5035890;28;19951;-62
2022/05/06 10:07:13;;;;;;;;;;;17.90;99.90;;;;;;5035953;28;19928;-61
2022/05/06 10:09:41;;;;;;;;;;;17.60;99.90;;;;;;5035859;28;19921;-62
2022/05/06 10:12:08;;;;;;;;;;;18.20;99.90;;;;;;5035596;28;19925;-62
2022/05/06 10:14:35;;;;;;;;;;;18.00;99.90;;;;;;5035941;28;20011;-61
2022/05/06 10:17:00;;;;;;;;;;;18.00;99.90;;;;;;5035791;28;20265;-63
2022/05/06 10:19:27;;;;;;;;;;;18.10;99.90;;;;;;5035682;28;19921;-62
2022/05/06 10:21:53;;;;;;;;;;;18.50;99.90;;;;;;5035650;28;19921;-61
2022/05/06 10:24:20;;;;;;;;;;;18.40;99.90;;;;;;5035532;28;20019;-61
2022/05/06 10:26:46;;;;;;;;;;;18.40;99.90;;;;;;5035434;28;19924;-62
2022/05/06 10:32:26;;;;;;;;;;;18.40;99.90;;;;;;5035341;28;19943;-61
2022/05/06 10:34:55;;;;;;;;;;;18.70;99.90;;;;;;5035188;28;20030;-61
2022/05/06 10:37:21;;;;;;;;;;;18.60;99.90;;;;;;5035233;28;19925;-63
2022/05/06 10:39:47;;;;;;;;;;;18.40;99.90;;;;;;5035449;28;20377;-61
2022/05/06 10:42:16;;;;;;;;;;;18.60;99.90;;;;;;5035326;28;19975;-61
2022/05/06 10:44:47;;;;;;;;;;;18.50;99.90;;;;;;5017750;28;19929;-62
2022/05/06 10:47:12;;;;;;;;;;;18.50;99.90;;;;;;5017719;28;19986;-62
2022/05/06 10:49:38;;;;;;;;;;;18.60;99.90;;;;;;5034984;28;19921;-61
2022/05/06 10:52:15;;;;;;;;;;;18.70;99.90;;;;;;5035093;28;20034;-61
2022/05/06 10:54:41;;;;;;;;;;;18.70;99.90;;;;;;5035306;28;19921;-61
2022/05/06 10:57:07;;;;;;;;;;;19.00;99.90;;;;;;5035032;28;20405;-62
2022/05/06 10:59:48;;;;;;;;;;;18.90;99.90;;;;;;5001202;28;19948;-61
2022/05/06 11:02:14;;;;;;;;;;;18.90;99.90;;;;;;5034791;28;20434;-62
2022/05/06 11:04:43;;;;;;;;;;;19.20;99.90;;;;;;5034990;28;19921;-62
2022/05/06 11:07:12;;;;;;;;;;;19.10;99.90;;;;;;5034874;28;19927;-61
2022/05/06 11:09:37;;;;;;;;;;;19.00;99.90;;;;;;5033644;28;20395;-62
2022/05/06 11:12:03;;;;;;;;;;;19.00;99.90;;;;;;5034414;28;19921;-61
2022/05/06 11:14:29;;;;;;;;;;;18.90;99.90;;;;;;5034587;28;19921;-61
2022/05/06 11:17:13;;;;;;;;;;;19.10;99.90;;;;;;5034469;28;19921;-62
2022/05/06 11:19:38;;;;;;;;;;;19.40;99.90;;;;;;5034657;28;19921;-61
2022/05/06 11:22:07;;;;;;;;;;;19.70;99.90;;;;;;5034492;28;19928;-61
2022/05/06 11:24:33;;;;;;;;;;;19.70;99.90;;;;;;5034499;28;19921;-62
2022/05/06 11:27:15;;;;;;;;;;;19.50;99.90;;;;;;5034387;28;20318;-62
2022/05/06 11:29:55;;;;;;;;;;;19.70;99.90;;;;;;5034458;28;20078;-61
2022/05/06 11:32:21;;;;;;;;;;;19.90;99.90;;;;;;5034213;28;19921;-61
2022/05/06 11:34:47;;;;;;;;;;;20.20;99.90;;;;;;5034370;28;19925;-63
2022/05/06 11:37:23;;;;;;;;;;;20.40;99.90;;;;;;5026165;28;19972;-61
2022/05/06 11:39:49;;;;;;;;;;;20.30;99.90;;;;;;5013802;28;19925;-60
2022/05/06 11:42:21;;;;;;;;;;;20.30;99.90;;;;;;5014132;28;19929;-60
2022/05/06 11:47:44;;;;;;;;;;;20.10;99.90;;;;;;5013756;28;20440;-62
2022/05/06 11:50:10;;;;;;;;;;;20.30;99.90;;;;;;5013526;28;19921;-62
2022/05/06 11:52:38;;;;;;;;;;;20.20;99.90;;;;;;5013878;28;19921;-60
2022/05/06 11:55:05;;;;;;;;;;;20.80;99.90;;;;;;5013844;28;19928;-62
2022/05/06 11:57:30;;;;;;;;;;;20.30;99.90;;;;;;5019581;28;19921;-60
2022/05/06 11:59:56;;;;;;;;;;;20.40;99.90;;;;;;5031777;28;20336;-62
2022/05/06 12:02:22;;;;;;;;;;;20.50;99.90;;;;;;5033385;28;19936;-61
2022/05/06 12:04:47;;;;;;;;;;;20.80;99.90;;;;;;5033507;28;19921;-61
2022/05/06 12:07:13;;;;;;;;;;;20.30;99.90;;;;;;5033912;28;19921;-62
2022/05/06 12:09:43;;;;;;;;;;;20.40;99.90;;;;;;5033720;28;20369;-62
2022/05/06 12:12:10;;;;;;;;;;;20.10;99.90;;;;;;5033280;28;19921;-61
2022/05/06 12:14:36;;;;;;;;;;;20.00;99.90;;;;;;5033209;28;19920;-60
2022/05/06 12:17:03;;;;;;;;;;;19.80;99.90;;;;;;5033067;28;19936;-62
2022/05/06 12:19:35;;;;;;;;;;;19.80;99.90;;;;;;5033009;28;19928;-61
2022/05/06 12:22:08;;;;;;;;;;;19.80;99.90;;;;;;5015454;28;20020;-61
2022/05/06 12:24:55;;;;;;;;;;;19.80;99.90;;;;;;4991833;28;19921;-61
2022/05/06 12:27:26;;;;;;;;;;;19.70;99.90;;;;;;4993408;28;19922;-61
2022/05/06 12:29:52;;;;;;;;;;;19.90;99.90;;;;;;4993022;28;19996;-62
2022/05/06 12:32:18;;;;;;;;;;;20.20;99.90;;;;;;4993381;28;20374;-61
2022/05/06 12:34:43;;;;;;;;;;;20.70;99.90;;;;;;4993251;28;19972;-62
2022/05/06 12:37:13;;;;;;;;;;;20.80;99.90;;;;;;4993342;28;20297;-62
2022/05/06 12:39:40;;;;;;;;;;;21.10;99.90;;;;;;5006095;28;19929;-62
2022/05/06 12:42:13;;;;;;;;;;;20.80;99.90;;;;;;5012379;28;20334;-62
2022/05/06 12:44:38;;;;;;;;;;;20.50;99.90;;;;;;5012604;28;20024;-63
2022/05/06 12:47:11;;;;;;;;;;;20.60;99.90;;;;;;5013000;28;19964;-62
2022/05/06 12:49:39;;;;;;;;;;;20.30;99.90;;;;;;4995141;28;19944;-64
2022/05/06 12:52:06;;;;;;;;;;;21.10;99.90;;;;;;5012694;28;19928;-61
2022/05/06 12:54:32;;;;;;;;;;;21.00;99.90;;;;;;5017979;28;19929;-68
2022/05/06 12:56:58;;;;;;;;;;;20.70;99.90;;;;;;5004832;28;19925;-68
2022/05/06 12:59:23;;;;;;;;;;;20.60;99.90;;;;;;5008350;28;19976;-65
2022/05/06 13:01:50;;;;;;;;;;;21.00;99.90;;;;;;5010140;28;19929;-60
2022/05/06 13:04:16;;;;;;;;;;;20.30;99.90;;;;;;5025736;28;19928;-61
2022/05/06 13:06:41;;;;;;;;;;;20.30;99.90;;;;;;5012213;28;20385;-60
2022/05/06 13:09:08;;;;;;;;;;;20.20;99.90;;;;;;4994931;28;19925;-60
2022/05/06 13:11:34;;;;;;;;;;;20.70;99.90;;;;;;5012085;28;19931;-61
2022/05/06 13:14:00;;;;;;;;;;;20.90;99.90;;;;;;5012556;28;19925;-61
2022/05/06 13:16:25;;;;;;;;;;;20.90;99.90;;;;;;5012656;28;19928;-60
2022/05/06 13:18:52;;;;;;;;;;;21.00;99.90;;;;;;5012195;28;20380;-60
2022/05/06 13:21:18;;;;;;;;;;;20.60;99.90;;;;;;5012170;28;19925;-61
2022/05/06 13:23:44;;;;;;;;;;;20.90;99.90;;;;;;5012254;28;19921;-59
2022/05/06 13:26:10;;;;;;;;;;;20.60;99.90;;;;;;5012095;28;19980;-59
2022/05/06 13:28:35;;;;;;;;;;;20.80;99.90;;;;;;5012255;28;19922;-60
2022/05/06 13:31:01;;;;;;;;;;;20.40;99.90;;;;;;5012390;28;19928;-58
2022/05/06 13:33:27;;;;;;;;;;;20.60;99.90;;;;;;4995870;28;20007;-58
2022/05/06 13:35:52;;;;;;;;;;;19.80;99.90;;;;;;5015554;28;19925;-58